Time;durP1;ratioP1;P1;durP2;ratioP2;P2;SDS_P1;SDS_P2;PMS_P1;PMS_P2;Temp;Humidity;BMP_temperature;BMP_pressure;BME280_temperature;BME280_humidity;BME280_pressure;Samples;Min_cycle;Max_cycle;Signal;HPM_P1;HPM_P2
2023/03/24 00:01:53;;;;;;;3.38;1.40;;;13.90;99.90;;;;;;5031068;28;20118;-72
2023/03/24 00:04:19;;;;;;;4.45;1.30;;;13.90;99.90;;;;;;5030879;28;20061;-71
2023/03/24 00:06:48;;;;;;;8.25;1.63;;;13.90;99.70;;;;;;5031122;28;20515;-72
2023/03/24 00:09:14;;;;;;;2.60;1.20;;;14.00;99.70;;;;;;5031075;28;20036;-70
2023/03/24 00:11:40;;;;;;;6.07;2.05;;;13.90;99.70;;;;;;5031466;28;20024;-72
2023/03/24 00:14:06;;;;;;;2.60;1.30;;;13.90;99.80;;;;;;5031237;28;20029;-71
2023/03/24 00:16:33;;;;;;;2.50;1.20;;;13.90;99.70;;;;;;5031131;28;20459;-71
2023/03/24 00:18:59;;;;;;;3.15;1.35;;;13.90;99.80;;;;;;5029961;28;20255;-72
2023/03/24 00:21:25;;;;;;;6.97;1.42;;;13.90;99.90;;;;;;5030322;28;20182;-72
2023/03/24 00:23:57;;;;;;;3.55;1.92;;;13.90;99.90;;;;;;5031351;28;20105;-71
2023/03/24 00:26:23;;;;;;;4.57;1.40;;;13.90;99.90;;;;;;5031211;28;20037;-71
2023/03/24 00:28:50;;;;;;;2.10;1.50;;;13.90;99.90;;;;;;5029755;28;20048;-71
2023/03/24 00:31:17;;;;;;;6.63;1.42;;;13.90;99.90;;;;;;5030872;28;20045;-71
2023/03/24 00:33:49;;;;;;;4.82;1.48;;;13.90;99.90;;;;;;5031021;28;20040;-71
2023/03/24 00:36:17;;;;;;;6.75;1.52;;;13.90;99.90;;;;;;5030059;28;20051;-71
2023/03/24 00:38:43;;;;;;;5.10;1.38;;;13.80;99.90;;;;;;5031477;28;20093;-71
2023/03/24 00:41:09;;;;;;;3.80;1.55;;;13.80;99.90;;;;;;5030738;28;20053;-71
2023/03/24 00:43:35;;;;;;;7.47;1.63;;;13.80;99.90;;;;;;5030744;28;20025;-72
2023/03/24 00:46:04;;;;;;;2.15;1.13;;;13.80;99.90;;;;;;5030973;28;20032;-71
2023/03/24 00:48:31;;;;;;;2.08;1.20;;;13.80;99.90;;;;;;5030576;28;20288;-72
2023/03/24 00:51:01;;;;;;;9.60;2.58;;;13.80;99.90;;;;;;5031068;28;20022;-71
2023/03/24 00:53:30;;;;;;;2.65;1.40;;;13.70;99.90;;;;;;5029674;28;20025;-71
2023/03/24 00:55:57;;;;;;;2.88;1.10;;;13.80;99.90;;;;;;5030854;28;20124;-71
2023/03/24 00:58:23;;;;;;;2.35;1.50;;;13.70;99.90;;;;;;5030569;28;20033;-71
2023/03/24 01:00:54;;;;;;;3.63;1.73;;;13.70;99.90;;;;;;5030537;28;20037;-71
2023/03/24 01:03:26;;;;;;;4.30;1.38;;;13.70;99.90;;;;;;5030443;28;20440;-70
2023/03/24 01:05:56;;;;;;;4.20;1.42;;;13.70;99.90;;;;;;5031434;28;20345;-71
2023/03/24 01:08:24;;;;;;;7.57;2.03;;;13.80;99.90;;;;;;5030195;28;20419;-72
2023/03/24 01:10:54;;;;;;;5.68;1.60;;;13.70;99.90;;;;;;5029410;28;20030;-71
2023/03/24 01:13:22;;;;;;;5.15;1.63;;;13.70;99.90;;;;;;5030619;28;20486;-71
2023/03/24 01:15:49;;;;;;;3.33;1.25;;;13.60;99.90;;;;;;5034522;28;20115;-71
2023/03/24 01:18:15;;;;;;;3.60;1.33;;;13.70;99.90;;;;;;5034358;28;20418;-71
2023/03/24 01:20:47;;;;;;;4.80;2.20;;;13.70;99.90;;;;;;5033791;28;20033;-72
2023/03/24 01:23:21;;;;;;;4.57;1.50;;;13.70;99.90;;;;;;5034405;28;20646;-71
2023/03/24 01:25:48;;;;;;;6.30;1.70;;;13.70;99.90;;;;;;5034794;28;20060;-71
2023/03/24 01:28:17;;;;;;;1.88;1.15;;;13.70;99.90;;;;;;5033376;28;20042;-71
2023/03/24 01:30:43;;;;;;;4.28;1.30;;;13.60;99.90;;;;;;5032910;28;20030;-71
2023/03/24 01:33:09;;;;;;;2.45;1.45;;;13.60;99.90;;;;;;5033458;28;20083;-71
2023/03/24 01:35:35;;;;;;;3.47;1.35;;;13.60;99.90;;;;;;5034329;28;20160;-71
2023/03/24 01:38:08;;;;;;;3.08;1.48;;;13.70;99.90;;;;;;5033003;28;20040;-71
2023/03/24 01:40:36;;;;;;;3.95;1.42;;;13.60;99.90;;;;;;5033835;28;20064;-71
2023/03/24 01:43:03;;;;;;;3.20;1.38;;;13.60;99.90;;;;;;5033945;28;20108;-70
2023/03/24 01:45:38;;;;;;;8.55;1.60;;;13.70;99.90;;;;;;5032774;28;20026;-71
2023/03/24 01:48:25;;;;;;;9.20;1.80;;;13.60;99.90;;;;;;5034257;28;20124;-71
2023/03/24 01:50:59;;;;;;;2.83;1.77;;;13.60;99.90;;;;;;5034216;28;20041;-70
2023/03/24 01:53:26;;;;;;;3.00;1.60;;;13.70;99.90;;;;;;5033960;28;20255;-71
2023/03/24 01:55:53;;;;;;;2.70;1.40;;;13.70;99.90;;;;;;5032906;28;20026;-72
2023/03/24 01:58:19;;;;;;;5.97;1.50;;;13.60;99.90;;;;;;5033735;28;20360;-71
2023/03/24 02:00:45;;;;;;;4.18;1.95;;;13.60;99.90;;;;;;5033925;28;20056;-72
2023/03/24 02:03:19;;;;;;;4.00;1.75;;;13.60;99.90;;;;;;5034192;28;20463;-72
2023/03/24 02:05:48;;;;;;;6.55;2.08;;;13.70;99.90;;;;;;5033544;28;20463;-72
2023/03/24 02:08:48;;;;;;;5.50;1.52;;;13.70;99.90;;;;;;5033426;28;20116;-71
2023/03/24 02:11:15;;;;;;;4.53;1.60;;;13.70;99.90;;;;;;5033657;28;20112;-71
2023/03/24 02:13:41;;;;;;;4.80;1.55;;;13.60;99.90;;;;;;5032250;28;20034;-72
2023/03/24 02:16:22;;;;;;;3.90;1.30;;;13.70;99.90;;;;;;5033132;28;20649;-70
2023/03/24 02:19:18;;;;;;;4.38;1.60;;;13.70;99.90;;;;;;5032389;28;20112;-71
2023/03/24 02:22:21;;;;;;;2.03;1.20;;;13.70;99.90;;;;;;5033140;28;20111;-72
2023/03/24 02:24:54;;;;;;;5.25;1.98;;;13.70;99.90;;;;;;5032911;28;20030;-73
2023/03/24 02:27:42;;;;;;;2.83;1.42;;;13.80;99.90;;;;;;5032321;28;20030;-71
2023/03/24 02:31:02;;;;;;;4.82;1.85;;;13.80;99.90;;;;;;5033297;28;20033;-70
2023/03/24 02:33:48;;;;;;;4.55;1.20;;;13.80;99.90;;;;;;5024094;28;20041;-71
2023/03/24 02:36:27;;;;;;;2.80;1.15;;;13.80;99.90;;;;;;5020018;28;20058;-70
2023/03/24 02:39:11;;;;;;;3.97;1.30;;;13.80;99.90;;;;;;5013461;28;20151;-71
2023/03/24 02:41:51;;;;;;;3.42;1.52;;;13.80;99.90;;;;;;5013275;28;20408;-71
2023/03/24 02:44:33;;;;;;;4.78;1.45;;;13.70;99.90;;;;;;5011871;28;20030;-70
2023/03/24 02:47:38;;;;;;;3.55;1.20;;;13.80;99.90;;;;;;5012722;28;20125;-71
2023/03/24 02:50:09;;;;;;;2.08;1.05;;;13.80;99.90;;;;;;5006563;28;20376;-71
2023/03/24 02:52:59;;;;;;;1.77;1.13;;;13.80;99.90;;;;;;5003107;28;20022;-71
2023/03/24 02:55:53;;;;;;;2.55;1.30;;;13.80;99.90;;;;;;5012915;28;20034;-71
2023/03/24 02:58:32;;;;;;;2.33;1.23;;;13.80;99.90;;;;;;5011619;28;20026;-71
2023/03/24 03:01:17;;;;;;;1.85;1.10;;;13.80;99.90;;;;;;5012688;28;20388;-72
2023/03/24 03:03:52;;;;;;;2.28;1.05;;;13.90;99.90;;;;;;5012654;28;20030;-71
2023/03/24 03:06:30;;;;;;;2.10;1.33;;;13.90;99.90;;;;;;5012467;28;20477;-72
2023/03/24 03:08:57;;;;;;;;;;;13.90;99.90;;;;;;5013281;28;20346;-71
2023/03/24 03:11:22;;;;;;;2.35;1.23;;;13.90;99.90;;;;;;5012777;28;19968;-71
2023/03/24 03:14:24;;;;;;;3.42;1.13;;;13.90;99.90;;;;;;5011362;28;20519;-72
2023/03/24 03:16:52;;;;;;;1.73;1.25;;;13.90;99.90;;;;;;5021117;28;20030;-71
2023/03/24 03:19:25;;;;;;;2.53;1.20;;;13.90;99.90;;;;;;5012367;28;20092;-70
2023/03/24 03:21:52;;;;;;;1.60;1.30;;;13.90;99.90;;;;;;5012253;28;20034;-71
2023/03/24 03:24:26;;;;;;;4.17;1.57;;;13.90;99.90;;;;;;5012333;28;20018;-71
2023/03/24 03:27:08;;;;;;;1.42;1.20;;;13.90;99.90;;;;;;5012575;28;20260;-71
2023/03/24 03:29:40;;;;;;;3.92;1.45;;;13.90;99.90;;;;;;5012112;28;20057;-71
2023/03/24 03:32:09;;;;;;;1.98;1.30;;;14.00;99.90;;;;;;5011866;28;20038;-71
2023/03/24 03:34:38;;;;;;;2.38;1.60;;;14.00;99.90;;;;;;5012074;28;20034;-72
2023/03/24 03:37:10;;;;;;;3.17;1.48;;;13.90;99.90;;;;;;5011782;28;20057;-71
2023/03/24 03:40:11;;;;;;;2.38;1.40;;;14.00;99.90;;;;;;5011963;28;20029;-71
2023/03/24 03:42:37;;;;;;;2.45;1.30;;;13.90;99.90;;;;;;5011878;28;20030;-70
2023/03/24 03:45:06;;;;;;;2.00;1.30;;;13.90;99.90;;;;;;5011294;28;20069;-70
2023/03/24 03:47:31;;;;;;;;;;;13.90;99.90;;;;;;5011094;28;20480;-70
2023/03/24 03:49:57;;;;;;;2.70;1.80;;;13.90;99.90;;;;;;5011855;28;19920;-71
2023/03/24 03:52:23;;;;;;;1.17;1.08;;;13.90;99.90;;;;;;5011887;28;20041;-70
2023/03/24 03:54:50;;;;;;;2.83;1.83;;;13.90;99.90;;;;;;5011709;28;20433;-72
2023/03/24 03:57:17;;;;;;;3.75;1.88;;;14.00;99.90;;;;;;5011690;28;20033;-72
2023/03/24 03:59:43;;;;;;;3.75;1.85;;;13.90;99.90;;;;;;5012003;28;20143;-71
2023/03/24 04:03:00;;;;;;;3.83;1.73;;;13.90;99.90;;;;;;5011621;28;20468;-71
2023/03/24 04:05:35;;;;;;;4.03;1.33;;;13.90;99.90;;;;;;5002981;28;20038;-73
2023/03/24 04:08:27;;;;;;;2.08;1.50;;;13.90;99.90;;;;;;5005322;28;20491;-71
2023/03/24 04:11:14;;;;;;;2.53;1.65;;;13.90;99.90;;;;;;5010335;28;20116;-71
2023/03/24 04:13:46;;;;;;;2.75;1.63;;;13.90;99.90;;;;;;5011443;28;20399;-71
2023/03/24 04:16:36;;;;;;;4.43;1.92;;;13.90;99.90;;;;;;5011384;28;20030;-71
2023/03/24 04:19:27;;;;;;;2.35;1.70;;;13.80;99.90;;;;;;5011128;28;20128;-71
2023/03/24 04:22:08;;;;;;;6.93;2.08;;;13.80;99.90;;;;;;5011197;28;20038;-71
2023/03/24 04:25:13;;;;;;;4.57;1.90;;;13.80;99.90;;;;;;5011264;28;20049;-71
2023/03/24 04:28:25;;;;;;;3.60;1.70;;;13.80;99.90;;;;;;5028408;28;20041;-71
2023/03/24 04:31:06;;;;;;;5.07;2.00;;;13.80;99.90;;;;;;5002507;28;20065;-70
2023/03/24 04:33:44;;;;;;;2.58;1.80;;;13.80;99.90;;;;;;5010960;28;20440;-71
2023/03/24 04:36:18;;;;;;;3.88;1.75;;;13.80;99.90;;;;;;5010331;28;20247;-70
2023/03/24 04:38:52;;;;;;;2.83;1.90;;;13.80;99.90;;;;;;5011150;28;20081;-71
2023/03/24 04:41:20;;;;;;;4.80;2.10;;;13.70;99.90;;;;;;5009923;28;20149;-72
2023/03/24 04:43:47;;;;;;;2.90;2.00;;;13.70;99.90;;;;;;5011290;28;20100;-70
2023/03/24 04:46:16;;;;;;;3.42;2.15;;;13.70;99.90;;;;;;5010951;28;20092;-70
2023/03/24 04:48:48;;;;;;;5.32;2.13;;;13.70;99.90;;;;;;5009768;28;20482;-72
2023/03/24 04:51:17;;;;;;;4.30;2.75;;;13.70;99.90;;;;;;5010850;28;20037;-70
2023/03/24 04:53:44;;;;;;;5.82;3.15;;;13.70;99.90;;;;;;5011255;28;20034;-71
2023/03/24 04:56:26;;;;;;;4.85;2.30;;;13.70;99.90;;;;;;5010807;28;20503;-72
2023/03/24 04:58:51;;;;;;;3.28;2.28;;;13.70;99.90;;;;;;5010721;28;20392;-71
2023/03/24 05:01:20;;;;;;;5.65;2.85;;;13.70;99.90;;;;;;5010731;28;20038;-70
2023/03/24 05:03:46;;;;;;;3.75;2.63;;;13.70;99.90;;;;;;5010733;28;20046;-70
2023/03/24 05:06:13;;;;;;;3.50;2.58;;;13.70;99.90;;;;;;5011106;28;20452;-72
2023/03/24 05:08:39;;;;;;;3.65;2.55;;;13.70;99.90;;;;;;5010607;28;20054;-71
2023/03/24 05:11:05;;;;;;;4.00;2.70;;;13.70;99.90;;;;;;5010566;28;20030;-70
2023/03/24 05:13:31;;;;;;;4.47;2.53;;;13.70;99.90;;;;;;5010925;28;20033;-71
2023/03/24 05:15:57;;;;;;;3.53;2.42;;;13.80;99.90;;;;;;5010637;28;20030;-70
2023/03/24 05:18:23;;;;;;;3.65;2.70;;;13.80;99.90;;;;;;5010608;28;20022;-71
2023/03/24 05:20:49;;;;;;;3.42;2.72;;;13.70;99.90;;;;;;5011327;28;20395;-71
2023/03/24 05:23:15;;;;;;;3.47;2.50;;;13.80;99.90;;;;;;5009545;28;20121;-72
2023/03/24 05:25:41;;;;;;;6.03;3.03;;;13.80;99.90;;;;;;5009539;28;20505;-70
2023/03/24 05:28:06;;;;;;;6.65;2.70;;;13.80;99.90;;;;;;5010488;28;20092;-72
2023/03/24 05:30:32;;;;;;;5.28;2.65;;;13.80;99.90;;;;;;5010431;28;20022;-71
2023/03/24 05:32:58;;;;;;;3.95;2.53;;;13.80;99.90;;;;;;5011247;28;20034;-73
2023/03/24 05:35:24;;;;;;;6.70;2.80;;;13.80;99.90;;;;;;5010660;28;20042;-72
2023/03/24 05:37:50;;;;;;;3.35;2.30;;;13.80;99.90;;;;;;5010373;28;20341;-72
2023/03/24 05:40:16;;;;;;;3.63;2.53;;;13.90;99.90;;;;;;5010442;28;20041;-72
2023/03/24 05:42:42;;;;;;;4.93;2.40;;;13.90;99.90;;;;;;5009261;28;20451;-73
2023/03/24 05:45:09;;;;;;;6.22;2.70;;;13.90;99.90;;;;;;5010801;28;20024;-71
2023/03/24 05:47:34;;;;;;;6.18;2.45;;;13.90;99.90;;;;;;5010659;28;20341;-72
2023/03/24 05:50:00;;;;;;;3.85;2.30;;;13.80;99.90;;;;;;5009266;28;20140;-72
2023/03/24 05:52:26;;;;;;;4.35;2.35;;;13.90;99.90;;;;;;5010296;28;20038;-72
2023/03/24 05:54:52;;;;;;;4.10;2.70;;;13.90;99.90;;;;;;5010461;28;20428;-72
2023/03/24 05:57:19;;;;;;;5.53;2.35;;;14.00;99.90;;;;;;5010308;28;20041;-71
2023/03/24 05:59:45;;;;;;;4.53;2.77;;;14.00;99.90;;;;;;5011209;28;20104;-71
2023/03/24 06:02:10;;;;;;;4.93;2.80;;;14.10;99.90;;;;;;5013804;28;20295;-71
2023/03/24 06:04:36;;;;;;;3.58;2.42;;;14.10;99.90;;;;;;5013716;28;20388;-70
2023/03/24 06:07:03;;;;;;;3.67;2.22;;;14.10;99.90;;;;;;5013666;28;20038;-71
2023/03/24 06:09:34;;;;;;;4.13;2.00;;;14.20;99.90;;;;;;5013477;28;20030;-72
2023/03/24 06:12:01;;;;;;;3.63;2.50;;;14.20;99.90;;;;;;5014190;28;20022;-71
2023/03/24 06:14:28;;;;;;;3.47;2.35;;;14.30;99.90;;;;;;5013637;28;20054;-71
2023/03/24 06:16:58;;;;;;;4.35;2.40;;;14.30;99.90;;;;;;5014049;28;20038;-71
2023/03/24 06:19:29;;;;;;;4.10;2.30;;;14.20;99.90;;;;;;5013715;28;20069;-71
2023/03/24 06:21:59;;;;;;;7.72;2.58;;;14.30;99.90;;;;;;5013453;28;20026;-70
2023/03/24 06:24:25;;;;;;;5.40;2.67;;;14.30;99.90;;;;;;5013432;28;20028;-71
2023/03/24 06:26:51;;;;;;;6.30;2.35;;;14.30;99.90;;;;;;5013864;28;20014;-71
2023/03/24 06:29:16;;;;;;;3.72;2.15;;;14.30;99.90;;;;;;5013577;28;20030;-71
2023/03/24 06:31:43;;;;;;;4.43;2.85;;;14.30;99.90;;;;;;5013402;28;20046;-71
2023/03/24 06:34:09;;;;;;;4.82;2.88;;;14.30;99.90;;;;;;5013534;28;20316;-70
2023/03/24 06:36:35;;;;;;;4.90;2.88;;;14.30;99.90;;;;;;5012665;28;20034;-71
2023/03/24 06:39:01;;;;;;;3.83;2.90;;;14.30;99.90;;;;;;5014027;28;20348;-72
2023/03/24 06:41:27;;;;;;;5.03;2.92;;;14.30;99.90;;;;;;5013399;28;20058;-73
2023/03/24 06:43:52;;;;;;;5.22;2.65;;;14.30;99.90;;;;;;5012164;28;20515;-71
2023/03/24 06:46:18;;;;;;;3.53;2.60;;;14.30;99.90;;;;;;5013597;28;20034;-71
2023/03/24 06:48:45;;;;;;;4.00;2.50;;;14.30;99.90;;;;;;5013150;28;20383;-72
2023/03/24 06:51:11;;;;;;;6.20;2.63;;;14.40;99.90;;;;;;5014100;28;20431;-71
2023/03/24 06:53:39;;;;;;;2.30;1.98;;;14.30;99.90;;;;;;5013407;28;20121;-71
2023/03/24 06:56:05;;;;;;;3.35;1.77;;;14.20;99.90;;;;;;5013197;28;20129;-71
2023/03/24 06:58:30;;;;;;;4.20;1.60;;;14.20;99.90;;;;;;5011564;28;20053;-71
2023/03/24 07:00:56;;;;;;;2.75;1.42;;;14.10;99.90;;;;;;5012997;28;20038;-71
2023/03/24 07:03:22;;;;;;;1.98;1.17;;;14.10;99.90;;;;;;5012771;28;20459;-71
2023/03/24 07:05:47;;;;;;;3.50;1.52;;;14.10;99.90;;;;;;5013355;28;20072;-71
2023/03/24 07:08:13;;;;;;;2.90;1.33;;;14.00;99.90;;;;;;5012889;28;20591;-71
2023/03/24 07:10:40;;;;;;;2.00;1.02;;;14.00;99.90;;;;;;5012750;28;20041;-71
2023/03/24 07:13:06;;;;;;;1.75;1.10;;;14.00;99.90;;;;;;5011430;28;20091;-72
2023/03/24 07:15:33;;;;;;;3.10;1.15;;;14.00;99.90;;;;;;5012087;28;20357;-72
2023/03/24 07:17:59;;;;;;;1.55;1.00;;;14.00;99.90;;;;;;5012516;28;20041;-71
2023/03/24 07:20:25;;;;;;;1.45;1.25;;;13.90;99.90;;;;;;5012294;28;20026;-69
2023/03/24 07:22:56;;;;;;;2.83;1.27;;;13.90;99.90;;;;;;5012382;28;20384;-72
2023/03/24 07:25:22;;;;;;;1.55;1.02;;;14.00;99.90;;;;;;5012524;28;20485;-71
2023/03/24 07:27:48;;;;;;;2.25;1.52;;;14.20;99.90;;;;;;5011050;28;20436;-71
2023/03/24 07:30:14;;;;;;;3.67;1.10;;;14.10;99.90;;;;;;5012241;28;20030;-71
2023/03/24 07:32:41;;;;;;;2.67;1.30;;;14.10;99.90;;;;;;5011457;28;20107;-71
2023/03/24 07:35:09;;;;;;;1.80;0.82;;;14.10;99.90;;;;;;5012221;28;20045;-71
2023/03/24 07:37:36;;;;;;;2.28;1.25;;;14.10;99.90;;;;;;5010965;28;20099;-71
2023/03/24 07:40:05;;;;;;;1.95;1.27;;;14.10;99.90;;;;;;5010856;28;20124;-70
2023/03/24 07:42:31;;;;;;;6.22;1.55;;;14.10;99.90;;;;;;5010867;28;20180;-71
2023/03/24 07:44:57;;;;;;;6.65;1.15;;;14.20;99.90;;;;;;5012469;28;20543;-71
2023/03/24 07:47:22;;;;;;;3.25;1.23;;;14.30;99.90;;;;;;5011779;28;20049;-70
2023/03/24 07:49:48;;;;;;;4.55;1.05;;;14.30;99.90;;;;;;5010988;28;20479;-71
2023/03/24 07:52:14;;;;;;;2.15;1.00;;;14.40;99.90;;;;;;5010996;28;20445;-72
2023/03/24 07:54:40;;;;;;;1.88;0.93;;;14.40;99.90;;;;;;5011633;28;20356;-72
2023/03/24 07:57:06;;;;;;;3.40;0.98;;;14.60;99.90;;;;;;5011729;28;20249;-71
2023/03/24 07:59:33;;;;;;;1.67;1.00;;;14.70;99.90;;;;;;5012149;28;20030;-69
2023/03/24 08:01:59;;;;;;;1.85;1.00;;;14.70;99.90;;;;;;5011842;28;20041;-73
2023/03/24 08:04:26;;;;;;;3.03;1.00;;;14.80;99.90;;;;;;5011840;28;20121;-72
2023/03/24 08:06:52;;;;;;;4.03;1.08;;;14.90;99.90;;;;;;5011522;28;20065;-71
2023/03/24 08:09:18;;;;;;;2.45;0.80;;;14.90;99.90;;;;;;5011092;28;20025;-72
2023/03/24 08:11:45;;;;;;;2.58;0.75;;;14.90;99.90;;;;;;5010825;28;20033;-71
2023/03/24 08:14:10;;;;;;;5.50;0.98;;;15.00;99.90;;;;;;5011399;28;20026;-71
2023/03/24 08:16:39;;;;;;;4.60;1.25;;;15.00;99.90;;;;;;5011388;28;20033;-71
2023/03/24 08:19:05;;;;;;;4.20;1.08;;;14.90;99.40;;;;;;5011389;28;20034;-70
2023/03/24 08:21:31;;;;;;;1.25;0.90;;;14.80;99.00;;;;;;5011015;28;20017;-71
2023/03/24 08:23:56;;;;;;;1.77;1.00;;;15.00;99.10;;;;;;5010955;28;20022;-71
2023/03/24 08:26:25;;;;;;;2.67;1.02;;;14.80;99.10;;;;;;5010870;28;20026;-69
2023/03/24 08:28:51;;;;;;;2.45;0.93;;;14.90;98.80;;;;;;5011179;28;20088;-71
2023/03/24 08:31:17;;;;;;;4.93;1.15;;;14.70;98.20;;;;;;5010899;28;20133;-70
2023/03/24 08:33:42;;;;;;;2.63;1.00;;;14.70;98.00;;;;;;5010871;28;20431;-71
2023/03/24 08:36:08;;;;;;;3.38;0.73;;;14.70;98.10;;;;;;5011294;28;20272;-71
2023/03/24 08:38:37;;;;;;;4.70;1.13;;;14.60;97.30;;;;;;5011178;28;20030;-71
2023/03/24 08:41:08;;;;;;;3.45;1.02;;;15.40;96.70;;;;;;5009707;28;20033;-71
2023/03/24 08:43:36;;;;;;;2.33;1.00;;;15.80;97.20;;;;;;5009999;28;20115;-70
2023/03/24 08:46:02;;;;;;;2.80;0.70;;;16.10;96.30;;;;;;5011118;28;20037;-72
2023/03/24 08:48:29;;;;;;;3.53;1.00;;;16.00;96.30;;;;;;5010662;28;20519;-70
2023/03/24 08:50:55;;;;;;;2.28;0.70;;;16.10;95.90;;;;;;5011357;28;20371;-69
2023/03/24 08:53:21;;;;;;;3.05;0.80;;;15.70;95.50;;;;;;5010788;28;20045;-71
2023/03/24 08:55:47;;;;;;;3.40;0.88;;;15.70;95.80;;;;;;5010917;28;20026;-70
2023/03/24 08:58:15;;;;;;;6.47;1.17;;;15.80;96.20;;;;;;5009710;28;20473;-70
2023/03/24 09:00:42;;;;;;;;;;;16.50;95.50;;;;;;5009907;28;20034;-71
2023/03/24 09:03:12;;;;;;;2.70;0.90;;;17.60;94.70;;;;;;5010071;28;20229;-71
2023/03/24 09:05:38;;;;;;;2.72;0.80;;;18.00;92.70;;;;;;5010948;28;20022;-70
2023/03/24 09:08:03;;;;;;;5.82;1.20;;;18.00;92.60;;;;;;5010985;28;20053;-71
2023/03/24 09:10:29;;;;;;;3.72;1.13;;;18.00;92.50;;;;;;5010747;28;20072;-71
2023/03/24 09:12:55;;;;;;;3.40;1.13;;;18.00;92.30;;;;;;5009685;28;20064;-71
2023/03/24 09:15:20;;;;;;;4.15;0.90;;;18.00;92.20;;;;;;5010793;28;20325;-72
2023/03/24 09:17:46;;;;;;;6.80;1.17;;;18.60;91.90;;;;;;5011097;28;20022;-70
2023/03/24 09:20:14;;;;;;;7.90;2.15;;;18.00;91.40;;;;;;5009630;28;20034;-71
2023/03/24 09:22:43;;;;;;;5.88;1.35;;;17.90;90.60;;;;;;5009461;28;20025;-70
2023/03/24 09:25:12;;;;;;;7.57;1.50;;;17.60;91.10;;;;;;5009646;28;20041;-71
2023/03/24 09:27:38;;;;;;;5.43;1.25;;;17.40;90.80;;;;;;5010438;28;20038;-72
2023/03/24 09:30:05;;;;;;;8.63;1.70;;;17.30;91.30;;;;;;5011427;28;20026;-72
2023/03/24 09:32:32;;;;;;;7.80;1.63;;;17.30;91.30;;;;;;5010907;28;20053;-73
2023/03/24 09:34:58;;;;;;;7.20;1.55;;;17.60;90.70;;;;;;5011216;28;20121;-71
2023/03/24 09:37:24;;;;;;;7.70;1.48;;;17.30;90.90;;;;;;5016336;28;20061;-72
2023/03/24 09:39:50;;;;;;;9.65;1.45;;;18.10;91.00;;;;;;5014577;28;20049;-71
2023/03/24 09:42:24;;;;;;;12.00;1.60;;;18.10;89.80;;;;;;5014122;28;20384;-69
2023/03/24 09:44:56;;;;;;;8.05;1.77;;;18.40;90.80;;;;;;5014922;28;20123;-70
2023/03/24 09:47:46;;;;;;;6.10;1.38;;;19.30;90.30;;;;;;5014129;28;20041;-69
2023/03/24 09:50:42;;;;;;;7.95;1.65;;;20.30;88.70;;;;;;5014270;28;20046;-72
2023/03/24 09:53:36;;;;;;;7.07;1.35;;;22.30;87.00;;;;;;5021383;28;20473;-70
2023/03/24 09:56:15;;;;;;;7.95;1.52;;;21.50;82.60;;;;;;5013744;28;20338;-71
2023/03/24 09:58:44;;;;;;;7.95;2.00;;;20.80;81.30;;;;;;5013747;28;20030;-69
2023/03/24 10:01:15;;;;;;;6.78;2.50;;;20.80;82.30;;;;;;5014172;28;20472;-72
2023/03/24 10:03:43;;;;;;;8.93;1.45;;;21.30;81.90;;;;;;5013994;28;20140;-70
2023/03/24 10:06:25;;;;;;;8.85;1.77;;;21.80;80.20;;;;;;5014575;28;20420;-70
2023/03/24 10:09:18;;;;;;;10.55;1.65;;;21.10;79.90;;;;;;5013867;28;20046;-72
2023/03/24 10:12:08;;;;;;;10.30;1.90;;;21.20;81.10;;;;;;5014011;28;20053;-72
2023/03/24 10:14:43;;;;;;;6.68;1.38;;;23.40;78.60;;;;;;5014192;28;20349;-72
2023/03/24 10:17:31;;;;;;;6.53;1.77;;;24.00;75.20;;;;;;5014436;28;20375;-73
2023/03/24 10:20:10;;;;;;;8.20;1.60;;;24.20;72.60;;;;;;5014051;28;20045;-71
2023/03/24 10:22:53;;;;;;;7.88;1.08;;;22.30;72.60;;;;;;5013522;28;20057;-71
2023/03/24 10:25:36;;;;;;;8.98;1.27;;;21.20;75.20;;;;;;5013568;28;20045;-72
2023/03/24 10:28:17;;;;;;;8.18;2.03;;;21.10;75.70;;;;;;5013424;28;20034;-72
2023/03/24 10:30:44;;;;;;;5.82;1.30;;;20.40;76.80;;;;;;5013528;28;20076;-73
2023/03/24 10:33:12;;;;;;;7.50;1.63;;;19.50;77.70;;;;;;5014193;28;20026;-73
2023/03/24 10:36:01;;;;;;;8.35;1.92;;;18.80;80.60;;;;;;5012407;28;20088;-73
2023/03/24 10:38:27;;;;;;;8.10;1.98;;;18.30;81.30;;;;;;5013672;28;20026;-72
2023/03/24 10:40:54;;;;;;;7.10;2.20;;;18.80;81.10;;;;;;5013707;28;20026;-72
2023/03/24 10:43:22;;;;;;;10.63;2.03;;;18.20;82.20;;;;;;5013298;28;20432;-73
2023/03/24 10:45:48;;;;;;;;;;;18.30;82.40;;;;;;5013378;28;20041;-71
2023/03/24 10:48:46;;;;;;;7.78;1.80;;;18.30;82.50;;;;;;5011088;28;20339;-71
2023/03/24 10:51:22;;;;;;;11.75;1.88;;;18.30;83.50;;;;;;5012403;28;20516;-70
2023/03/24 10:53:48;;;;;;;7.95;2.30;;;18.30;83.50;;;;;;5013513;28;20026;-72
2023/03/24 10:56:41;;;;;;;10.18;2.13;;;17.90;83.30;;;;;;5013392;28;20030;-72
2023/03/24 10:59:19;;;;;;;10.65;2.35;;;17.40;84.60;;;;;;5011480;28;20241;-71
2023/03/24 11:01:45;;;;;;;8.50;1.65;;;17.20;85.70;;;;;;5012778;28;20044;-71
2023/03/24 11:04:15;;;;;;;5.03;1.55;;;17.70;85.90;;;;;;5011670;28;20033;-71
2023/03/24 11:06:57;;;;;;;10.68;1.92;;;18.10;84.80;;;;;;5012788;28;20124;-71
2023/03/24 11:09:23;;;;;;;8.25;2.30;;;18.50;84.80;;;;;;5012374;28;20026;-71
2023/03/24 11:11:51;;;;;;;4.95;1.38;;;18.80;83.00;;;;;;5013072;28;20036;-72
2023/03/24 11:14:26;;;;;;;5.97;1.52;;;19.70;82.00;;;;;;5011829;28;20510;-74
2023/03/24 11:17:01;;;;;;;8.70;1.67;;;20.00;81.70;;;;;;5012774;28;20026;-73
2023/03/24 11:19:27;;;;;;;8.93;1.92;;;20.10;79.40;;;;;;5012630;28;20189;-71
2023/03/24 11:22:00;;;;;;;6.03;1.42;;;20.30;78.60;;;;;;5012268;28;20121;-71
2023/03/24 11:24:26;;;;;;;9.40;2.22;;;21.00;78.30;;;;;;5012364;28;20097;-72
2023/03/24 11:27:02;;;;;;;7.32;1.63;;;21.70;77.60;;;;;;5012829;28;20022;-71
2023/03/24 11:29:31;;;;;;;4.03;1.40;;;21.90;76.70;;;;;;5012206;28;20479;-72
2023/03/24 11:32:09;;;;;;;12.10;2.42;;;21.40;75.20;;;;;;5010953;28;20050;-72
2023/03/24 11:34:40;;;;;;;7.93;1.88;;;20.90;77.10;;;;;;5011645;28;20293;-72
2023/03/24 11:37:18;;;;;;;4.72;1.73;;;21.00;75.60;;;;;;5010774;28;20045;-71
2023/03/24 11:39:44;;;;;;;6.78;1.85;;;19.90;76.50;;;;;;5012002;28;20096;-72
2023/03/24 11:42:09;;;;;;;8.77;1.60;;;19.10;79.10;;;;;;5011393;28;20053;-71
2023/03/24 11:44:38;;;;;;;8.95;1.75;;;18.50;80.00;;;;;;5010944;28;20046;-71
2023/03/24 11:47:07;;;;;;;4.82;1.33;;;18.40;80.30;;;;;;5012086;28;20121;-72
2023/03/24 11:49:39;;;;;;;4.68;1.40;;;18.40;79.90;;;;;;5011859;28;20064;-72
2023/03/24 11:52:14;;;;;;;6.78;1.92;;;18.50;79.90;;;;;;5011887;28;20052;-72
2023/03/24 11:54:39;;;;;;;8.48;1.73;;;18.70;80.10;;;;;;5011613;28;20072;-71
2023/03/24 11:57:14;;;;;;;8.13;1.80;;;19.10;78.50;;;;;;5012816;28;20057;-71
2023/03/24 11:59:48;;;;;;;9.23;1.58;;;18.70;78.80;;;;;;5011736;28;20045;-72
2023/03/24 12:02:43;;;;;;;4.72;1.35;;;18.50;79.20;;;;;;5011535;28;20058;-72
2023/03/24 12:05:40;;;;;;;9.15;2.30;;;18.80;79.00;;;;;;5011983;28;20030;-73
2023/03/24 12:08:20;;;;;;;6.95;1.20;;;19.30;79.00;;;;;;5013537;28;20037;-71
2023/03/24 12:11:13;;;;;;;7.70;1.67;;;19.20;78.40;;;;;;5012225;28;20080;-72
2023/03/24 12:13:42;;;;;;;7.85;1.55;;;19.10;77.40;;;;;;5010104;28;20037;-72
2023/03/24 12:16:29;;;;;;;4.13;1.38;;;19.00;76.90;;;;;;5011530;28;20041;-71
2023/03/24 12:19:07;;;;;;;16.17;4.67;;;18.60;77.00;;;;;;5010960;28;20376;-69
2023/03/24 12:21:51;;;;;;;3.95;1.42;;;18.00;77.90;;;;;;5011030;28;20148;-70
2023/03/24 12:24:23;;;;;;;7.60;1.63;;;18.00;78.70;;;;;;5011457;28;20472;-71
2023/03/24 12:26:56;;;;;;;9.40;1.95;;;18.00;79.30;;;;;;5011721;28;20037;-72
2023/03/24 12:29:22;;;;;;;7.40;1.42;;;18.20;79.50;;;;;;5011964;28;20034;-70
2023/03/24 12:32:00;;;;;;;11.13;1.55;;;17.70;80.80;;;;;;5011805;28;20057;-70
2023/03/24 12:34:51;;;;;;;7.13;1.33;;;17.30;81.40;;;;;;5011212;28;20026;-71
2023/03/24 12:37:32;;;;;;;10.55;1.98;;;17.50;82.10;;;;;;5011488;28;20374;-71
2023/03/24 12:40:35;;;;;;;8.20;1.30;;;17.30;82.60;;;;;;5011035;28;20044;-70
2023/03/24 12:43:27;;;;;;;7.55;1.30;;;17.60;82.50;;;;;;5011070;28;20036;-70
2023/03/24 12:45:55;;;;;;;9.15;2.05;;;17.50;81.70;;;;;;5011125;28;20460;-69
2023/03/24 12:48:37;;;;;;;4.50;1.27;;;17.50;81.90;;;;;;5011419;28;20034;-73
2023/03/24 12:51:27;;;;;;;6.30;1.52;;;17.80;82.50;;;;;;5011410;28;20022;-71
2023/03/24 12:54:20;;;;;;;9.38;1.40;;;17.60;81.40;;;;;;5010906;28;20022;-71
2023/03/24 12:56:55;;;;;;;8.93;1.42;;;17.30;83.00;;;;;;5011094;28;20046;-70
2023/03/24 12:59:43;;;;;;;7.03;1.25;;;17.50;85.30;;;;;;5010994;28;20061;-70
2023/03/24 13:02:32;;;;;;;4.53;1.30;;;17.80;83.10;;;;;;5010685;28;20117;-69
2023/03/24 13:05:23;;;;;;;9.10;1.73;;;17.80;83.10;;;;;;5009726;28;20061;-69
2023/03/24 13:07:53;;;;;;;7.47;1.25;;;18.00;82.50;;;;;;5013568;28;20064;-72
2023/03/24 13:10:28;;;;;;;4.63;1.20;;;17.90;81.30;;;;;;5012141;28;20038;-70
2023/03/24 13:13:05;;;;;;;7.03;1.40;;;17.90;80.40;;;;;;5013988;28;20431;-72
2023/03/24 13:15:51;;;;;;;5.15;1.40;;;17.70;80.00;;;;;;5013698;28;20037;-72